Time;durP1;ratioP1;P1;durP2;ratioP2;P2;SDS_P1;SDS_P2;PMS_P1;PMS_P2;Temp;Humidity;BMP_temperature;BMP_pressure;BME280_temperature;BME280_humidity;BME280_pressure;Samples;Min_cycle;Max_cycle;Signal;HPM_P1;HPM_P2
2023/10/25 00:01:59;;;;;;;48.30;19.70;;;;;;;20.63;100.00;100238.03;5111128;28;20176;-77
2023/10/25 00:04:25;;;;;;;64.65;20.60;;;;;;;20.42;100.00;100210.78;5112334;28;20067;-77
2023/10/25 00:06:50;;;;;;;41.90;17.92;;;;;;;20.68;100.00;100234.69;5112085;28;20093;-78
2023/10/25 00:09:16;;;;;;;41.47;19.85;;;;;;;20.60;100.00;100232.97;5112017;28;20124;-77
2023/10/25 00:11:41;;;;;;;52.20;19.48;;;;;;;20.51;100.00;100233.31;5111828;28;20034;-77
2023/10/25 00:14:08;;;;;;;53.47;19.33;;;;;;;20.53;100.00;100226.63;5111729;28;20039;-78
2023/10/25 00:16:34;;;;;;;37.20;19.27;;;;;;;20.51;100.00;100217.78;5112013;28;20024;-76
2023/10/25 00:18:59;;;;;;;39.97;21.98;;;;;;;20.45;100.00;100204.91;5111781;28;20487;-77
2023/10/25 00:21:25;;;;;;;45.08;19.77;;;;;;;20.57;100.00;100222.44;5075531;28;20038;-78
2023/10/25 00:23:51;;;;;;;35.72;20.05;;;;;;;20.54;100.00;100211.06;5113236;28;20031;-78
2023/10/25 00:26:17;;;;;;;42.72;21.13;;;;;;;20.50;100.00;100213.34;5111681;28;20070;-78
2023/10/25 00:28:42;;;;;;;44.75;20.17;;;;;;;20.34;100.00;100188.19;5112885;28;20478;-79
2023/10/25 00:31:08;;;;;;;44.38;19.05;;;;;;;20.58;100.00;100212.34;5114279;27;20031;-79
2023/10/25 00:33:33;;;;;;;43.28;21.08;;;;;;;20.62;100.00;100211.75;5112810;28;20031;-78
2023/10/25 00:35:59;;;;;;;39.22;20.80;;;;;;;20.52;100.00;100197.59;5111460;28;20407;-77
2023/10/25 00:38:24;;;;;;;49.22;19.48;;;;;;;20.53;100.00;100204.75;5111476;28;20035;-77
2023/10/25 00:40:49;;;;;;;48.10;19.25;;;;;;;20.52;100.00;100194.84;5111288;28;20027;-77
2023/10/25 00:43:16;;;;;;;54.35;20.17;;;;;;;20.53;100.00;100188.38;5111262;28;20031;-78
2023/10/25 00:46:00;;;;;;;52.65;20.73;;;;;;;20.44;100.00;100184.09;5111326;28;20024;-78
2023/10/25 00:48:28;;;;;;;46.15;19.10;;;;;;;20.40;100.00;100187.41;5111165;28;20100;-77
2023/10/25 00:50:54;;;;;;;52.42;20.33;;;;;;;20.40;100.00;100180.06;5111163;27;20027;-77
2023/10/25 00:53:21;;;;;;;49.25;20.02;;;;;;;20.49;100.00;100178.88;5111016;27;20116;-78
2023/10/25 00:55:47;;;;;;;76.35;21.83;;;;;;;20.36;100.00;100158.81;5111017;28;20016;-78
2023/10/25 00:58:13;;;;;;;49.63;18.80;;;;;;;20.53;100.00;100177.44;5111309;28;20026;-78
2023/10/25 01:00:39;;;;;;;50.25;19.80;;;;;;;20.54;100.00;100176.41;5111628;28;20019;-77
2023/10/25 01:03:07;;;;;;;38.88;18.40;;;;;;;20.59;100.00;100176.63;5110843;28;20406;-77
2023/10/25 01:05:32;;;;;;;56.25;20.45;;;;;;;20.35;100.00;100140.72;5110594;28;20416;-77
2023/10/25 01:07:58;;;;;;;44.70;17.02;;;;;;;20.48;100.00;100170.88;5110719;28;20020;-78
2023/10/25 01:10:25;;;;;;;42.80;18.10;;;;;;;20.54;100.00;100181.88;5110827;28;20035;-77
2023/10/25 01:12:50;;;;;;;40.72;18.00;;;;;;;20.53;100.00;100174.69;5110605;28;20042;-77
2023/10/25 01:15:19;;;;;;;32.55;18.55;;;;;;;20.50;100.00;100166.91;5110918;28;20411;-77
2023/10/25 01:17:46;;;;;;;53.45;19.13;;;;;;;20.52;100.00;100167.53;5092231;28;20031;-77
2023/10/25 01:20:11;;;;;;;45.83;17.73;;;;;;;20.57;100.00;100162.34;5110624;28;20076;-78
2023/10/25 01:22:37;;;;;;;37.90;17.40;;;;;;;20.67;100.00;100166.59;5115220;28;20032;-77
2023/10/25 01:25:02;;;;;;;49.28;17.35;;;;;;;20.70;100.00;100163.47;5114880;28;20406;-79
2023/10/25 01:27:27;;;;;;;40.78;17.50;;;;;;;20.68;100.00;100168.25;5110546;28;20023;-76
2023/10/25 01:29:53;;;;;;;44.05;18.70;;;;;;;20.70;100.00;100158.84;5110496;28;20028;-78
2023/10/25 01:32:18;;;;;;;36.90;16.27;;;;;;;20.74;100.00;100162.00;5110764;28;20495;-77
2023/10/25 01:34:44;;;;;;;51.35;19.38;;;;;;;20.73;100.00;100161.16;5110662;28;20794;-77
2023/10/25 01:37:09;;;;;;;46.38;17.60;;;;;;;20.77;100.00;100183.44;5110275;28;20078;-77
2023/10/25 01:39:35;;;;;;;35.33;16.35;;;;;;;20.80;100.00;100183.06;5109494;28;20034;-77
2023/10/25 01:42:00;;;;;;;40.97;17.05;;;;;;;20.81;100.00;100176.53;5110582;28;20042;-78
2023/10/25 01:44:26;;;;;;;39.85;16.30;;;;;;;20.76;100.00;100182.63;5110454;28;20031;-77
2023/10/25 01:46:51;;;;;;;33.88;15.45;;;;;;;20.78;100.00;100186.00;5110264;28;20051;-76
2023/10/25 01:49:17;;;;;;;52.42;17.90;;;;;;;20.80;100.00;100175.69;5110708;28;20095;-78
2023/10/25 01:51:42;;;;;;;43.70;16.25;;;;;;;20.77;100.00;100167.06;5091066;28;20040;-77
2023/10/25 01:54:07;;;;;;;32.25;15.15;;;;;;;20.76;100.00;100162.66;5110480;28;20028;-77
2023/10/25 01:56:33;;;;;;;31.17;16.33;;;;;;;20.76;100.00;100162.66;5091463;28;20532;-77
2023/10/25 01:58:58;;;;;;;37.97;16.63;;;;;;;20.62;100.00;100146.16;5110321;28;20024;-77
2023/10/25 02:01:24;;;;;;;34.78;15.85;;;;;;;20.73;100.00;100171.25;5110191;28;20068;-77
2023/10/25 02:03:49;;;;;;;41.63;15.68;;;;;;;20.73;100.00;100160.31;5109935;28;20118;-77
2023/10/25 02:06:15;;;;;;;35.15;16.45;;;;;;;20.69;100.00;100148.94;5110536;28;20031;-77
2023/10/25 02:08:41;;;;;;;36.08;15.35;;;;;;;20.68;100.00;100154.59;5109953;28;20081;-77
2023/10/25 02:11:07;;;;;;;28.08;15.20;;;;;;;20.68;100.00;100147.25;5110327;28;20020;-77
2023/10/25 02:13:33;;;;;;;46.10;15.77;;;;;;;20.68;100.00;100146.41;5112492;28;20032;-78
2023/10/25 02:15:58;;;;;;;50.85;14.95;;;;;;;20.68;100.00;100151.88;5116958;28;20035;-78
2023/10/25 02:18:24;;;;;;;42.50;15.32;;;;;;;20.43;100.00;100115.97;5115443;28;20115;-78
2023/10/25 02:20:49;;;;;;;46.15;15.88;;;;;;;20.62;100.00;100148.91;5114289;28;20030;-77
2023/10/25 02:23:15;;;;;;;44.03;16.33;;;;;;;20.53;100.00;100117.31;5114236;28;20031;-77
2023/10/25 02:25:40;;;;;;;43.45;18.13;;;;;;;20.66;100.00;100137.56;5114323;28;20108;-78
2023/10/25 02:28:06;;;;;;;43.58;15.93;;;;;;;20.68;100.00;100138.19;5114118;28;20038;-77
2023/10/25 02:30:31;;;;;;;43.25;15.68;;;;;;;20.52;100.00;100110.16;5114085;28;20062;-78
2023/10/25 02:32:57;;;;;;;52.10;16.90;;;;;;;20.61;100.00;100125.34;5114140;28;20433;-77
2023/10/25 02:35:22;;;;;;;38.13;16.52;;;;;;;20.64;100.00;100135.88;5114174;28;20544;-77
2023/10/25 02:37:48;;;;;;;46.55;15.50;;;;;;;20.62;100.00;100134.38;5113973;28;20033;-77
2023/10/25 02:40:13;;;;;;;41.65;14.93;;;;;;;20.56;100.00;100138.78;5112468;28;20445;-77
2023/10/25 02:42:42;;;;;;;53.40;18.15;;;;;;;20.49;100.00;100124.22;5113520;28;20032;-77
2023/10/25 02:45:08;;;;;;;56.58;18.65;;;;;;;20.54;100.00;100116.28;5113609;28;20024;-79
2023/10/25 02:47:33;;;;;;;61.42;17.10;;;;;;;20.53;100.00;100117.31;5113627;28;20569;-78
2023/10/25 02:49:59;;;;;;;47.60;17.70;;;;;;;20.51;100.00;100122.16;5113685;28;20107;-77
2023/10/25 02:52:24;;;;;;;40.83;15.52;;;;;;;20.46;100.00;100116.44;5113529;28;20474;-78
2023/10/25 02:54:53;;;;;;;41.83;15.80;;;;;;;20.39;100.00;100107.38;5112377;28;20096;-78
2023/10/25 02:57:19;;;;;;;40.90;16.40;;;;;;;20.37;100.00;100109.44;5113521;28;20503;-76
2023/10/25 02:59:44;;;;;;;42.83;17.45;;;;;;;20.52;100.00;100142.94;5115358;28;20039;-77
2023/10/25 03:02:10;;;;;;;47.53;18.67;;;;;;;20.45;100.00;100135.78;5113541;27;20487;-77
2023/10/25 03:04:35;;;;;;;57.10;21.42;;;;;;;20.37;100.00;100117.63;5113310;28;20094;-76
2023/10/25 03:07:01;;;;;;;40.65;16.85;;;;;;;20.29;100.00;100104.16;5114331;28;20042;-79
2023/10/25 03:09:26;;;;;;;50.33;16.90;;;;;;;20.30;100.00;100116.78;5116281;28;20035;-77
2023/10/25 03:11:51;;;;;;;47.42;20.75;;;;;;;20.38;100.00;100119.34;5114101;28;20068;-78
2023/10/25 03:14:17;;;;;;;44.10;17.25;;;;;;;20.29;100.00;100098.69;5113084;28;20480;-78
2023/10/25 03:16:42;;;;;;;35.05;16.33;;;;;;;20.36;100.00;100094.13;5113318;28;20411;-79
2023/10/25 03:19:08;;;;;;;43.00;16.65;;;;;;;20.38;100.00;100088.44;5112955;28;20034;-78
2023/10/25 03:21:33;;;;;;;39.50;15.02;;;;;;;20.33;100.00;100089.06;5112823;28;20035;-77
2023/10/25 03:23:59;;;;;;;38.80;17.58;;;;;;;20.26;100.00;100109.16;5112616;28;20023;-76
2023/10/25 03:26:24;;;;;;;49.30;17.30;;;;;;;19.97;100.00;100066.50;5112059;28;20031;-77
2023/10/25 03:28:50;;;;;;;47.00;16.50;;;;;;;20.10;100.00;100105.66;5112847;28;20062;-78
2023/10/25 03:31:16;;;;;;;55.95;19.30;;;;;;;19.96;100.00;100075.75;5112522;28;20095;-78
2023/10/25 03:33:41;;;;;;;39.78;17.40;;;;;;;19.96;100.00;100070.28;5112402;28;20023;-76
2023/10/25 03:36:07;;;;;;;54.58;20.42;;;;;;;20.09;100.00;100092.19;5112241;28;20023;-78
2023/10/25 03:38:35;;;;;;;47.97;19.42;;;;;;;20.05;100.00;100090.94;5112382;28;20066;-78
2023/10/25 03:41:06;;;;;;;44.53;20.92;;;;;;;20.07;100.00;100088.84;5112435;28;20025;-78
2023/10/25 03:43:32;;;;;;;36.75;18.65;;;;;;;19.90;100.00;100057.44;5112207;27;20027;-77
2023/10/25 03:46:05;;;;;;;31.75;18.17;;;;;;;19.98;100.00;100070.91;5112136;28;20042;-77
2023/10/25 03:48:32;;;;;;;48.58;18.75;;;;;;;19.99;100.00;100086.25;5111928;28;20027;-78
2023/10/25 03:50:57;;;;;;;56.40;20.98;;;;;;;19.84;100.00;100083.63;5112133;28;20024;-78
2023/10/25 03:53:23;;;;;;;50.75;20.45;;;;;;;19.92;100.00;100088.94;5112426;28;20028;-78
2023/10/25 03:55:55;;;;;;;90.40;22.92;;;;;;;19.85;100.00;100087.19;5112383;28;20026;-78
2023/10/25 03:58:24;;;;;;;;;;;;;;;19.88;100.00;100084.06;5110891;28;20043;-79
2023/10/25 04:01:00;;;;;;;121.05;23.83;;;;;;;19.68;100.00;100077.59;5117967;28;19911;-78
2023/10/25 04:03:26;;;;;;;74.60;20.70;;;;;;;19.65;100.00;100078.00;5115942;28;20391;-77
2023/10/25 04:05:52;;;;;;;84.43;23.70;;;;;;;19.64;100.00;100063.50;5112048;28;20040;-77
2023/10/25 04:08:18;;;;;;;74.93;22.63;;;;;;;19.63;100.00;100070.00;5111448;28;20380;-78
2023/10/25 04:10:49;;;;;;;70.43;21.88;;;;;;;19.33;100.00;100020.19;5111799;28;20038;-78
2023/10/25 04:13:14;;;;;;;97.13;24.17;;;;;;;19.60;100.00;100055.94;5111475;28;20088;-78
2023/10/25 04:15:40;;;;;;;77.63;22.40;;;;;;;19.43;100.00;100039.81;5111746;27;20047;-78
2023/10/25 04:18:09;;;;;;;102.65;28.65;;;;;;;19.58;100.00;100049.81;5111973;28;20426;-78
2023/10/25 04:20:35;;;;;;;160.93;27.02;;;;;;;19.46;99.67;100031.25;5111595;28;20039;-79
2023/10/25 04:23:00;;;;;;;93.70;25.77;;;;;;;19.52;98.99;100048.72;5111460;28;20019;-78
2023/10/25 04:25:26;;;;;;;107.60;25.17;;;;;;;19.46;98.55;100058.53;5111643;28;20035;-78
2023/10/25 04:27:53;;;;;;;90.40;30.52;;;;;;;19.39;98.36;100060.34;5111300;28;20019;-78
2023/10/25 04:30:18;;;;;;;96.55;26.52;;;;;;;19.39;97.79;100056.72;5091809;28;20112;-78
2023/10/25 04:32:46;;;;;;;89.18;26.73;;;;;;;19.36;97.52;100066.16;5111401;28;20471;-77
2023/10/25 04:35:12;;;;;;;96.60;29.95;;;;;;;19.38;97.58;100064.09;5111212;28;20438;-77
2023/10/25 04:37:37;;;;;;;156.60;28.73;;;;;;;19.42;96.82;100068.13;5110977;28;20023;-79
2023/10/25 04:40:03;;;;;;;94.15;26.00;;;;;;;19.32;96.53;100056.69;5111226;28;20085;-80
2023/10/25 04:42:29;;;;;;;118.35;24.80;;;;;;;19.41;96.19;100057.44;5111000;28;20078;-77
2023/10/25 04:44:54;;;;;;;84.88;23.20;;;;;;;19.40;95.70;100053.84;5111070;28;20115;-77
2023/10/25 04:47:20;;;;;;;105.07;25.42;;;;;;;19.37;95.09;100037.00;5111156;28;20483;-76
2023/10/25 04:49:45;;;;;;;132.57;27.10;;;;;;;19.40;94.99;100053.84;5111531;28;20118;-76
2023/10/25 04:52:11;;;;;;;106.55;24.40;;;;;;;19.20;94.79;100003.72;5114316;28;20020;-77
2023/10/25 04:54:36;;;;;;;132.57;27.75;;;;;;;19.47;94.30;100043.88;5117712;28;20027;-78
2023/10/25 04:57:02;;;;;;;104.07;27.58;;;;;;;19.47;94.06;100026.66;5111708;28;20020;-77
2023/10/25 04:59:29;;;;;;;132.35;31.50;;;;;;;19.34;93.46;100004.69;5110765;28;20141;-78
2023/10/25 05:01:54;;;;;;;149.13;34.75;;;;;;;19.52;93.08;100025.00;5110985;28;20023;-79
2023/10/25 05:04:20;;;;;;;108.05;31.45;;;;;;;19.55;92.72;100024.63;5110223;28;20472;-79
2023/10/25 05:06:46;;;;;;;117.28;31.48;;;;;;;19.51;92.38;100022.47;5110824;28;20054;-79
2023/10/25 05:09:12;;;;;;;133.93;33.92;;;;;;;19.44;92.26;100000.63;5110592;28;20100;-78
2023/10/25 05:11:38;;;;;;;153.48;34.22;;;;;;;19.63;91.58;100031.78;5110424;28;20023;-80
2023/10/25 05:14:04;;;;;;;158.60;31.13;;;;;;;19.70;90.91;100029.97;5110541;28;20055;-78
2023/10/25 05:16:30;;;;;;;121.65;29.70;;;;;;;19.75;89.78;100023.94;5091859;28;20514;-79
2023/10/25 05:18:55;;;;;;;137.05;29.70;;;;;;;19.82;89.30;100031.13;5111098;28;20046;-79
2023/10/25 05:21:26;;;;;;;145.13;30.15;;;;;;;19.87;88.40;100041.44;5111042;28;20077;-81
2023/10/25 05:23:52;;;;;;;135.18;31.02;;;;;;;19.92;87.72;100041.69;5109980;28;20456;-81
2023/10/25 05:26:18;;;;;;;149.57;29.77;;;;;;;19.88;87.35;100019.41;5110382;28;20027;-79
2023/10/25 05:28:44;;;;;;;154.02;30.08;;;;;;;20.02;87.42;100043.03;5110426;28;20027;-79
2023/10/25 05:31:16;;;;;;;105.47;24.80;;;;;;;20.12;86.70;100044.56;5110276;28;20132;-80
2023/10/25 05:33:41;;;;;;;133.02;29.67;;;;;;;20.05;86.11;100015.34;5111432;28;20030;-81
2023/10/25 05:36:07;;;;;;;133.00;27.35;;;;;;;20.10;85.52;100022.91;5119318;28;20063;-81
2023/10/25 05:38:33;;;;;;;120.18;27.85;;;;;;;20.18;85.24;100016.44;5111982;28;20020;-80
2023/10/25 05:40:59;;;;;;;186.75;61.47;;;;;;;20.24;85.21;100029.28;5110476;28;20027;-80
2023/10/25 05:43:28;;;;;;;118.50;31.42;;;;;;;20.23;85.39;100022.13;5114244;28;20111;-81
2023/10/25 05:45:54;;;;;;;78.47;26.65;;;;;;;20.27;84.27;100024.31;5126889;28;20408;-81
2023/10/25 05:48:20;;;;;;;140.85;28.15;;;;;;;20.24;84.22;100018.38;5121399;28;20031;-80
2023/10/25 05:50:49;;;;;;;102.85;27.35;;;;;;;20.29;83.88;100027.69;5110304;28;20406;-79
2023/10/25 05:53:15;;;;;;;148.20;29.70;;;;;;;20.34;84.18;100024.31;5110319;28;20629;-80
2023/10/25 05:55:44;;;;;;;104.82;29.40;;;;;;;20.27;84.07;100007.94;5109996;28;20106;-80
2023/10/25 05:58:09;;;;;;;133.50;30.48;;;;;;;20.42;83.83;100024.19;5110297;28;20052;-80
2023/10/25 06:00:35;;;;;;;107.90;30.73;;;;;;;20.38;83.21;100015.53;5110291;28;20487;-80
2023/10/25 06:03:01;;;;;;;107.03;26.35;;;;;;;20.50;82.90;100013.91;5109801;28;20029;-80
2023/10/25 06:05:32;;;;;;;87.72;26.52;;;;;;;20.48;83.04;99987.84;5109878;28;20075;-81
2023/10/25 06:07:58;;;;;;;106.03;29.98;;;;;;;20.56;82.56;99991.22;5109780;28;20077;-80
2023/10/25 06:10:23;;;;;;;121.97;30.63;;;;;;;20.67;82.38;99995.28;5110159;28;20032;-82
2023/10/25 06:12:49;;;;;;;112.53;34.10;;;;;;;20.75;81.48;99981.41;5090673;28;20118;-80
2023/10/25 06:15:15;;;;;;;110.85;33.70;;;;;;;20.86;80.59;99979.97;5110028;28;20122;-79
2023/10/25 06:17:41;;;;;;;107.88;32.38;;;;;;;20.83;79.89;99967.53;5110046;28;20034;-81
2023/10/25 06:20:07;;;;;;;90.30;31.38;;;;;;;20.76;79.07;99957.66;5109731;28;20071;-79
2023/10/25 06:22:32;;;;;;;81.60;29.25;;;;;;;20.86;78.59;99964.41;5109937;28;20018;-80
2023/10/25 06:24:57;;;;;;;110.78;31.83;;;;;;;20.93;78.16;99983.56;5109735;28;20031;-81
2023/10/25 06:27:23;;;;;;;123.65;38.33;;;;;;;20.99;77.40;99978.09;5110245;28;20441;-80
2023/10/25 06:29:48;;;;;;;217.25;41.25;;;;;;;20.92;77.61;99944.44;5110378;28;20040;-80
2023/10/25 06:32:14;;;;;;;135.15;36.45;;;;;;;21.13;77.25;99965.31;5110264;28;20031;-80
2023/10/25 06:34:39;;;;;;;194.27;47.13;;;;;;;21.22;76.22;99975.03;5109780;28;20028;-80
2023/10/25 06:37:06;;;;;;;180.02;45.17;;;;;;;21.32;76.08;99974.56;5121760;28;20023;-81
2023/10/25 06:39:31;;;;;;;97.78;36.92;;;;;;;21.41;75.44;99987.84;5125675;28;20074;-80
2023/10/25 06:41:57;;;;;;;119.93;47.95;;;;;;;21.45;75.16;99980.06;5112580;28;20020;-80
2023/10/25 06:44:23;;;;;;;125.70;44.63;;;;;;;21.59;74.95;99988.03;5109904;28;20024;-81
2023/10/25 06:46:49;;;;;;;166.43;46.22;;;;;;;21.61;75.11;99983.22;5090508;28;20071;-81
2023/10/25 06:49:14;;;;;;;139.68;45.85;;;;;;;21.68;74.55;99986.78;5110218;28;20028;-81
2023/10/25 06:51:42;;;;;;;141.32;44.00;;;;;;;21.75;74.01;99980.44;5112956;28;20081;-81
2023/10/25 06:54:09;;;;;;;152.48;52.30;;;;;;;21.70;73.44;99965.53;5113311;28;20446;-80
2023/10/25 06:56:35;;;;;;;166.63;54.35;;;;;;;21.82;72.77;99973.94;5109979;28;20070;-81
2023/10/25 06:59:01;;;;;;;144.82;53.55;;;;;;;21.99;72.79;99977.91;5110741;28;20051;-80
2023/10/25 07:01:31;;;;;;;123.93;52.25;;;;;;;22.08;71.32;99978.53;5113432;28;20479;-80
2023/10/25 07:03:59;;;;;;;140.00;49.60;;;;;;;22.21;70.90;99981.22;5112936;28;20044;-80
2023/10/25 07:06:25;;;;;;;138.63;44.83;;;;;;;22.14;70.51;99953.00;5112841;28;20398;-80
2023/10/25 07:08:50;;;;;;;110.60;32.65;;;;;;;22.27;69.85;99974.03;5113307;28;20031;-80
2023/10/25 07:11:16;;;;;;;112.32;33.80;;;;;;;22.21;69.14;99981.22;5112965;28;20098;-80
2023/10/25 07:13:41;;;;;;;73.82;29.05;;;;;;;22.15;69.66;99987.56;5113008;28;20698;-80
2023/10/25 07:16:07;;;;;;;51.90;24.45;;;;;;;22.14;70.06;99980.41;5112724;28;20026;-79
2023/10/25 07:18:33;;;;;;;63.90;26.58;;;;;;;22.18;69.91;99951.53;5112379;28;20070;-80
2023/10/25 07:20:58;;;;;;;84.63;25.73;;;;;;;22.22;69.96;99961.00;5112559;28;20032;-79
2023/10/25 07:23:24;;;;;;;52.47;22.83;;;;;;;21.98;70.60;99932.44;5112653;28;20400;-80
2023/10/25 07:25:49;;;;;;;76.45;25.27;;;;;;;22.06;71.40;99950.50;5112804;28;20406;-80
2023/10/25 07:28:15;;;;;;;108.70;27.75;;;;;;;21.95;71.88;99932.88;5115584;28;20032;-79
2023/10/25 07:30:41;;;;;;;52.38;22.67;;;;;;;22.02;71.74;99939.16;5127360;28;20099;-80
2023/10/25 07:33:07;;;;;;;73.80;24.77;;;;;;;21.98;71.68;99940.66;5122268;28;20479;-81
2023/10/25 07:35:32;;;;;;;82.05;25.00;;;;;;;21.97;70.82;99930.75;5112515;28;20028;-79
2023/10/25 07:37:58;;;;;;;54.95;23.63;;;;;;;21.83;70.41;99898.13;5112157;28;20031;-80
2023/10/25 07:40:23;;;;;;;67.00;24.17;;;;;;;22.06;71.10;99928.59;5112576;28;20028;-80
2023/10/25 07:42:49;;;;;;;75.85;26.10;;;;;;;22.23;70.46;99932.56;5112502;28;20107;-81
2023/10/25 07:45:14;;;;;;;68.13;24.95;;;;;;;22.26;70.74;99923.06;5112168;28;20031;-80
2023/10/25 07:47:40;;;;;;;58.72;22.73;;;;;;;22.36;70.49;99923.41;5112315;28;20479;-80
2023/10/25 07:50:06;;;;;;;68.25;25.05;;;;;;;22.33;70.66;99921.97;5112132;28;20024;-79
2023/10/25 07:52:34;;;;;;;57.05;21.70;;;;;;;22.29;70.61;99923.47;5112166;28;20514;-80
2023/10/25 07:55:03;;;;;;;57.50;25.02;;;;;;;22.21;71.88;99926.44;5111923;27;20057;-80
2023/10/25 07:57:29;;;;;;;98.57;26.17;;;;;;;22.30;71.22;99908.69;5112007;28;20071;-80
2023/10/25 07:59:54;;;;;;;62.92;25.75;;;;;;;22.45;70.52;99928.44;5111924;28;20027;-80
2023/10/25 08:02:20;;;;;;;49.58;27.02;;;;;;;22.31;70.13;99904.91;5111610;28;20497;-81
2023/10/25 08:04:45;;;;;;;92.93;29.85;;;;;;;22.53;70.00;99919.97;5111682;28;20048;-81
2023/10/25 08:07:11;;;;;;;65.70;25.38;;;;;;;22.53;69.77;99911.75;5111712;28;20016;-81
2023/10/25 08:09:39;;;;;;;79.88;27.90;;;;;;;22.60;69.48;99912.53;5121260;28;20024;-81
2023/10/25 08:12:05;;;;;;;50.05;24.90;;;;;;;22.53;68.57;99914.50;5111659;28;20024;-81
2023/10/25 08:14:31;;;;;;;51.25;26.48;;;;;;;22.41;68.20;99890.75;5110663;28;20395;-80
2023/10/25 08:16:56;;;;;;;103.55;27.80;;;;;;;22.67;68.34;99904.31;5112122;28;20527;-81
2023/10/25 08:19:21;;;;;;;61.80;25.45;;;;;;;22.78;67.89;99912.66;5111209;28;20028;-81
2023/10/25 08:21:47;;;;;;;56.35;23.58;;;;;;;22.87;67.46;99904.19;5119483;28;20026;-80
2023/10/25 08:24:12;;;;;;;74.68;26.35;;;;;;;22.81;67.35;99894.94;5123992;28;20043;-83
2023/10/25 08:26:39;;;;;;;63.53;25.23;;;;;;;22.90;67.49;99888.13;5113334;28;20146;-81
2023/10/25 08:29:06;;;;;;;59.83;25.50;;;;;;;23.02;67.09;99893.72;5111312;28;20554;-81
2023/10/25 08:31:32;;;;;;;51.45;24.08;;;;;;;22.99;67.10;99903.25;5111556;28;20027;-79
2023/10/25 08:33:59;;;;;;;51.25;26.08;;;;;;;22.92;66.76;99885.16;5109977;28;20088;-80
2023/10/25 08:36:24;;;;;;;58.17;26.38;;;;;;;23.00;66.93;99876.63;5110793;28;20032;-80
2023/10/25 08:38:50;;;;;;;54.78;24.65;;;;;;;22.84;66.30;99864.34;5111259;28;20035;-81
2023/10/25 08:41:19;;;;;;;78.88;27.23;;;;;;;22.74;67.27;99840.16;5110977;28;20032;-80
2023/10/25 08:43:45;;;;;;;57.03;25.05;;;;;;;23.06;67.41;99868.34;5110857;28;20074;-80
2023/10/25 08:46:11;;;;;;;56.17;25.45;;;;;;;23.10;67.04;99872.34;5110515;27;20055;-81
2023/10/25 08:48:36;;;;;;;58.53;25.17;;;;;;;23.24;67.02;99878.53;5110922;27;20531;-81
2023/10/25 08:51:03;;;;;;;79.15;27.63;;;;;;;23.31;66.83;99873.84;5110995;28;20034;-80
2023/10/25 08:53:30;;;;;;;47.63;25.08;;;;;;;23.46;66.82;99882.59;5111151;28;20111;-80
2023/10/25 08:55:57;;;;;;;51.22;24.90;;;;;;;23.47;65.95;99866.97;5110909;28;20063;-80
2023/10/25 08:58:24;;;;;;;75.68;27.27;;;;;;;23.46;65.64;99871.59;5110777;28;20026;-80
2023/10/25 09:00:51;;;;;;;51.13;24.95;;;;;;;23.56;65.16;99871.94;5110841;28;20503;-80
2023/10/25 09:03:32;;;;;;;57.40;24.73;;;;;;;23.66;64.53;99863.19;5110639;28;20027;-80
2023/10/25 09:06:05;;;;;;;57.85;23.80;;;;;;;23.65;63.84;99848.59;5111122;28;20100;-80
2023/10/25 09:08:34;;;;;;;61.30;24.92;;;;;;;23.73;64.05;99851.03;5111417;28;20039;-82
2023/10/25 09:11:08;;;;;;;59.42;25.55;;;;;;;23.78;63.81;99853.94;5110967;28;20051;-80
2023/10/25 09:13:43;;;;;;;58.88;25.40;;;;;;;23.55;63.95;99864.75;5116187;28;20077;-81
2023/10/25 09:16:11;;;;;;;77.93;27.48;;;;;;;23.71;63.69;99858.66;5123021;28;20032;-79
2023/10/25 09:18:39;;;;;;;66.00;25.48;;;;;;;23.73;63.53;99840.06;5115603;28;20413;-81
2023/10/25 09:21:05;;;;;;;134.93;33.28;;;;;;;23.97;62.75;99852.03;5091143;28;20028;-80
2023/10/25 09:23:33;;;;;;;52.92;24.50;;;;;;;24.14;62.53;99835.78;5107575;28;20402;-80
2023/10/25 09:26:00;;;;;;;65.85;31.52;;;;;;;24.22;60.91;99832.69;5112137;28;20499;-81
2023/10/25 09:28:27;;;;;;;51.28;24.38;;;;;;;24.36;60.48;99831.44;5119431;28;20084;-81
2023/10/25 09:31:01;;;;;;;66.30;25.05;;;;;;;24.45;60.12;99826.47;5110765;28;20015;-80
2023/10/25 09:33:30;;;;;;;80.88;27.05;;;;;;;24.57;60.32;99819.09;5110260;28;20058;-80
2023/10/25 09:35:57;;;;;;;58.13;24.95;;;;;;;24.74;59.85;99823.66;5110230;28;20031;-81
2023/10/25 09:38:24;;;;;;;67.38;23.65;;;;;;;24.88;58.09;99814.16;5109938;28;20514;-80
2023/10/25 09:40:50;;;;;;;76.85;26.73;;;;;;;24.87;57.66;99814.38;5110435;28;20725;-80
2023/10/25 09:43:20;;;;;;;67.93;24.33;;;;;;;24.87;57.61;99814.38;5109830;28;20168;-81
2023/10/25 09:45:51;;;;;;;52.58;23.08;;;;;;;25.00;56.90;99807.81;5110071;28;20023;-80
2023/10/25 09:48:19;;;;;;;58.17;23.27;;;;;;;25.00;56.12;99794.06;5110236;28;20115;-80
2023/10/25 09:50:48;;;;;;;65.72;25.15;;;;;;;24.94;55.45;99782.09;5110096;28;20471;-80
2023/10/25 09:53:26;;;;;;;50.58;23.27;;;;;;;24.79;55.17;99774.31;5110193;28;20023;-80
2023/10/25 09:56:00;;;;;;;51.63;21.38;;;;;;;24.89;54.95;99785.56;5110364;28;20521;-80
2023/10/25 09:58:27;;;;;;;53.50;23.15;;;;;;;24.87;55.00;99776.72;5110079;28;20034;-80
2023/10/25 10:00:53;;;;;;;51.58;22.75;;;;;;;24.87;55.35;99775.88;5087134;28;20048;-80
2023/10/25 10:03:33;;;;;;;55.03;22.23;;;;;;;24.76;55.27;99758.28;5087462;28;20147;-80
2023/10/25 10:06:09;;;;;;;55.45;24.38;;;;;;;25.01;55.00;99776.50;5093117;28;20170;-81
2023/10/25 10:08:48;;;;;;;53.60;23.17;;;;;;;25.00;54.54;99777.56;5101036;28;20028;-80
2023/10/25 10:11:18;;;;;;;59.45;20.60;;;;;;;25.14;54.27;99767.97;5091244;28;20123;-81
2023/10/25 10:13:43;;;;;;;64.15;21.20;;;;;;;25.08;53.72;99760.69;5086579;28;20052;-80
2023/10/25 10:16:15;;;;;;;55.78;20.45;;;;;;;25.23;53.28;99774.78;5086913;28;20197;-79
2023/10/25 10:18:45;;;;;;;62.95;22.95;;;;;;;25.38;53.23;99767.72;5086808;28;20039;-81
2023/10/25 10:21:13;;;;;;;61.90;22.67;;;;;;;25.36;52.91;99758.03;5086630;28;20032;-80
2023/10/25 10:23:43;;;;;;;38.90;20.92;;;;;;;25.42;52.66;99762.56;5086635;28;20032;-81
2023/10/25 10:26:10;;;;;;;51.10;21.85;;;;;;;25.42;51.98;99765.31;5086861;28;20081;-80
2023/10/25 10:28:38;;;;;;;59.17;22.25;;;;;;;25.54;52.12;99759.81;5086672;28;20047;-80
2023/10/25 10:31:03;;;;;;;50.95;21.02;;;;;;;25.50;51.91;99740.22;5090469;28;20072;-80
2023/10/25 10:33:29;;;;;;;48.50;20.38;;;;;;;25.39;51.51;99719.00;5109409;28;20455;-81
2023/10/25 10:35:59;;;;;;;47.05;19.73;;;;;;;25.59;51.13;99760.78;5113776;28;20027;-81
2023/10/25 10:38:25;;;;;;;65.13;21.77;;;;;;;25.49;50.83;99740.44;5113811;28;20028;-80
2023/10/25 10:40:53;;;;;;;47.47;21.40;;;;;;;25.43;50.73;99742.22;5094295;28;20070;-80
2023/10/25 10:43:20;;;;;;;89.28;24.85;;;;;;;25.44;50.73;99730.13;5113934;27;20024;-82
2023/10/25 10:45:52;;;;;;;68.00;21.80;;;;;;;25.49;50.60;99730.28;5116610;28;20496;-80
2023/10/25 10:48:21;;;;;;;48.17;19.80;;;;;;;25.53;50.52;99728.72;5112300;28;20027;-79
2023/10/25 10:50:49;;;;;;;67.60;20.67;;;;;;;25.50;50.50;99737.47;5113578;28;20035;-82
2023/10/25 10:53:14;;;;;;;76.82;22.20;;;;;;;25.49;50.33;99730.28;5113504;28;20106;-81
2023/10/25 10:55:40;;;;;;;58.08;22.08;;;;;;;25.54;50.53;99730.38;5113594;28;20058;-81
2023/10/25 10:58:07;;;;;;;49.00;19.60;;;;;;;25.50;50.12;99729.19;5118926;28;20024;-81
2023/10/25 11:00:33;;;;;;;48.47;19.42;;;;;;;25.42;49.92;99713.00;5129742;28;20028;-80
2023/10/25 11:03:01;;;;;;;46.35;19.45;;;;;;;25.44;49.60;99710.88;5122433;28;20410;-80
2023/10/25 11:05:27;;;;;;;50.13;21.33;;;;;;;25.56;49.53;99719.97;5112911;28;20123;-80
2023/10/25 11:07:56;;;;;;;55.38;20.17;;;;;;;25.68;49.30;99729.03;5111749;28;20123;-80